Airfield :
LOGIN :

Register | Disclaimer

   EN    FR    IT 

 










Legend :    VFR   Marginal VFR   IFR   Intensive IFR   Very Intensive IFR
Visi :
Ceiling :
>= 8 km
>= 3000ft
5 to 8 km
1000 to 3000 ft
1500m to 5 km
500 to 1000 ft
800 to 1500m
200 to 500 ft
< 800m
< 200 ft
Symbols :   Thunderstorms  Fog  Heavy snow  Heavy precipitations  Wind > 20 kt
SIGMETs :     Misc.  Thunderstorms  Icing  Turbulence  Mountain Waves  Volcanic Ashes






- Airport Elevation : 1 ft


EGCK - Caernarfon

CURRENT METAR :
  • 092050Z AUTO 16007KT 100V180 9999 FEW029/// 05/02 Q1022

EXPIRED METARs :
  • 092020Z AUTO 16007KT 9999 NCD 05/02 Q1022
  • 091950Z AUTO 16005KT 110V200 9999 NCD 04/02 Q1022
  • 091920Z AUTO 16005KT 090V230 9999 NCD 04/01 Q1022
  • 091850Z AUTO 22004KT 110V250 9999 NCD 04/M00 Q1022
  • 091820Z AUTO 27007KT 9999 NCD 08/03 Q1022

TAF TAF EGCK
Valid from the 09 at 21:00 until the 10 at 06:00 UTC


092006Z 0921/1006 16009KT 9999 FEW030
BECMG 0922/1002 18018G30KT
PROB30 1004/1006 19034G45KT



MET'MAP, your aeronautical weather chart ! - Copyright ORBIFLY December 2007 - Disclaimer

ORBIFLY MET'MAP TEAM :

Programming & Development : Alexandra Zaïnal
Concept & original design : Baudouin d'Aumeries
Assistance for programming : Marc-Olivier Méhu
Technical & hardware support : Manuel Goepfert

Contact : metmap@orbifly.com




SOURCES & CREDITS :

   NOAA